createdAt,value
2023-02-09T00:01:38.023Z,103016.47
2023-02-09T00:04:08.038Z,103004.78
2023-02-09T00:06:40.370Z,103007.44
2023-02-09T00:09:10.118Z,103012.41
2023-02-09T00:11:52.302Z,103001.38
2023-02-09T00:14:23.389Z,103013.69
2023-02-09T00:16:53.446Z,103012.31
2023-02-09T00:19:24.630Z,102998.22
2023-02-09T00:21:57.400Z,103001.59
2023-02-09T00:24:27.427Z,102993.84
2023-02-09T00:26:57.186Z,103001.28
2023-02-09T00:29:27.691Z,102993.94
2023-02-09T00:31:57.568Z,102993.09
2023-02-09T00:34:27.317Z,102989.22
2023-02-09T00:36:59.589Z,102988.19
2023-02-09T00:39:29.327Z,102999.72
2023-02-09T00:42:11.385Z,102989.84
2023-02-09T00:44:42.730Z,102984.91
2023-02-09T00:47:13.058Z,102991.06
2023-02-09T00:49:42.880Z,102991.06
2023-02-09T00:52:15.165Z,102988.41
2023-02-09T00:54:44.854Z,102984.91
2023-02-09T00:57:14.598Z,102984.25
2023-02-09T00:59:44.360Z,102982.25
2023-02-09T01:02:14.016Z,102991.50
2023-02-09T01:04:43.863Z,102998.13
2023-02-09T01:07:16.158Z,102996.09
2023-02-09T01:09:45.829Z,102996.09
2023-02-09T01:12:15.634Z,102986.03
2023-02-09T01:14:45.637Z,102982.75
2023-02-09T01:17:15.656Z,102978.41
2023-02-09T01:19:45.327Z,102990.13
2023-02-09T01:22:18.205Z,102984.16
2023-02-09T01:24:47.941Z,102975.13
2023-02-09T01:27:17.786Z,102989.50
2023-02-09T01:29:47.981Z,102992.31
2023-02-09T01:32:17.739Z,102995.19
2023-02-09T01:34:47.509Z,102996.00
2023-02-09T01:37:19.832Z,102992.72
2023-02-09T01:39:49.761Z,103007.53
2023-02-09T01:42:20.134Z,102994.00
2023-02-09T01:45:08.802Z,103001.00
2023-02-09T01:47:44.654Z,102993.63
2023-02-09T01:50:16.140Z,102988.28
2023-02-09T01:52:51.094Z,102992.16
2023-02-09T01:55:25.225Z,102986.16
2023-02-09T01:58:00.503Z,102990.06
2023-02-09T02:00:30.684Z,102978.53
2023-02-09T02:03:04.725Z,102990.25
2023-02-09T02:05:37.356Z,102992.25
2023-02-09T02:08:17.908Z,102993.28
2023-02-09T02:10:47.882Z,102992.66
2023-02-09T02:13:17.829Z,102992.66
2023-02-09T02:16:01.983Z,102991.81
2023-02-09T02:18:51.524Z,102991.00
2023-02-09T02:22:12.270Z,102993.03
2023-02-09T02:25:18.786Z,102981.16
2023-02-09T02:27:51.624Z,102979.94
2023-02-09T02:30:39.696Z,102987.94
2023-02-09T02:33:29.792Z,102987.31
2023-02-09T02:36:07.124Z,102983.63
2023-02-09T02:38:41.811Z,102983.81
2023-02-09T02:41:17.827Z,102979.69
2023-02-09T02:44:00.018Z,102983.34
2023-02-09T02:46:36.229Z,102990.53
2023-02-09T02:49:15.091Z,102989.91
2023-02-09T02:51:48.515Z,102988.06
2023-02-09T02:54:22.579Z,102986.41
2023-02-09T02:56:56.422Z,102983.09
2023-02-09T02:59:30.118Z,102988.44
2023-02-09T03:02:06.389Z,102984.75
2023-02-09T03:04:40.760Z,102976.34
2023-02-09T03:07:10.602Z,102971.69
2023-02-09T03:09:40.341Z,102976.00
2023-02-09T03:12:18.103Z,102975.34
2023-02-09T03:21:17.414Z,102977.13
2023-02-09T03:23:55.551Z,102978.13
2023-02-09T03:26:29.569Z,102974.47
2023-02-09T03:29:02.045Z,102973.81
2023-02-09T03:31:33.440Z,102967.44
2023-02-09T03:34:03.619Z,102965.81
2023-02-09T03:36:40.319Z,102969.50
2023-02-09T03:39:10.031Z,102966.19
2023-02-09T03:41:39.934Z,102962.50
2023-02-09T03:44:22.064Z,102953.13
2023-02-09T03:46:51.887Z,102957.03
2023-02-09T03:49:21.765Z,102960.75
2023-02-09T03:51:54.348Z,102953.56
2023-02-09T03:54:24.438Z,102954.38
2023-02-09T03:56:54.244Z,102953.75
2023-02-09T03:59:25.326Z,102950.25
2023-02-09T04:01:55.735Z,102945.13
2023-02-09T04:04:25.875Z,102948.97
2023-02-09T04:06:58.945Z,102947.13
2023-02-09T04:09:30.042Z,102952.66
2023-02-09T04:11:59.937Z,102943.81
2023-02-09T04:14:29.645Z,102941.16
2023-02-09T04:16:59.266Z,102929.66
2023-02-09T04:19:29.329Z,102923.50
2023-02-09T04:22:01.675Z,102923.50
2023-02-09T04:24:32.031Z,102927.41
2023-02-09T04:27:01.720Z,102924.38
2023-02-09T04:29:31.588Z,102926.03
2023-02-09T04:32:01.324Z,102922.75
2023-02-09T04:34:33.846Z,102918.41
2023-02-09T04:37:06.131Z,102917.75
2023-02-09T04:39:35.865Z,102923.94
2023-02-09T04:42:05.688Z,102920.44
2023-02-09T04:44:35.359Z,102909.13
2023-02-09T04:47:05.062Z,102911.81
2023-02-09T04:49:34.857Z,102909.53
2023-02-09T04:52:07.505Z,102909.53
2023-02-09T04:54:37.168Z,102916.66
2023-02-09T04:57:19.293Z,102915.03
2023-02-09T04:59:49.030Z,102917.06
2023-02-09T05:02:18.779Z,102916.88
2023-02-09T05:04:48.515Z,102920.19
2023-02-09T05:07:20.888Z,102917.97
2023-02-09T05:09:50.579Z,102929.25
2023-02-09T05:12:20.272Z,102930.91
2023-02-09T05:14:49.964Z,102925.56
2023-02-09T05:17:21.289Z,102925.56
2023-02-09T05:19:51.434Z,102923.09
2023-02-09T05:22:23.800Z,102921.66
2023-02-09T05:24:53.712Z,102917.34
2023-02-09T05:27:23.420Z,102918.53
2023-02-09T05:29:53.071Z,102913.19
2023-02-09T05:32:22.821Z,102903.72
2023-02-09T05:34:52.594Z,102897.56
2023-02-09T05:37:24.920Z,102888.94
2023-02-09T05:39:54.666Z,102884.41
2023-02-09T05:42:24.409Z,102880.94
2023-02-09T05:44:54.520Z,102878.88
2023-02-09T05:47:26.844Z,102882.84
2023-02-09T05:49:56.541Z,102886.13
2023-02-09T05:52:28.934Z,102879.78
2023-02-09T05:54:58.612Z,102889.81
2023-02-09T05:57:28.407Z,102900.50
2023-02-09T05:59:58.168Z,102891.84
2023-02-09T06:02:27.930Z,102902.50
2023-02-09T06:04:57.615Z,102911.53
2023-02-09T06:07:30.066Z,102915.22
2023-02-09T06:09:59.774Z,102928.75
2023-02-09T06:12:29.600Z,102926.91
2023-02-09T06:14:59.381Z,102927.94
2023-02-09T06:17:29.138Z,102924.63
2023-02-09T06:19:58.851Z,102924.63
2023-02-09T06:22:31.979Z,102916.63
2023-02-09T06:25:01.801Z,102915.22
2023-02-09T06:27:31.553Z,102914.00
2023-02-09T06:30:01.232Z,102913.66
2023-02-09T06:32:30.958Z,102919.81
2023-02-09T06:35:00.784Z,102928.00
2023-02-09T06:37:33.306Z,102937.03
2023-02-09T06:40:03.098Z,102925.53
2023-02-09T06:42:44.097Z,102932.88
2023-02-09T06:45:14.361Z,102941.91
2023-02-09T06:47:44.700Z,102940.25
2023-02-09T06:50:16.018Z,102938.63
2023-02-09T06:52:48.992Z,102948.81
2023-02-09T06:55:18.859Z,102942.66
2023-02-09T06:57:48.837Z,102945.53
2023-02-09T07:00:19.666Z,102942.03
2023-02-09T07:02:49.778Z,102947.56
2023-02-09T07:05:20.950Z,102946.97
2023-02-09T07:07:53.308Z,102943.56
2023-02-09T07:10:23.275Z,102945.19
2023-02-09T07:12:53.097Z,102949.56
2023-02-09T07:15:22.872Z,102962.91
2023-02-09T07:17:52.607Z,102954.88
2023-02-09T07:20:22.633Z,102968.22
2023-02-09T07:22:54.897Z,102955.88
2023-02-09T07:25:24.633Z,102951.56
2023-02-09T07:27:54.458Z,102954.22
2023-02-09T07:30:24.316Z,102943.56
2023-02-09T07:32:53.983Z,102948.06
2023-02-09T07:35:23.717Z,102943.56
2023-02-09T07:37:56.073Z,102939.25
2023-02-09T07:40:25.943Z,102951.19
2023-02-09T07:42:55.740Z,102946.50
2023-02-09T07:45:25.525Z,102935.25
2023-02-09T07:47:55.198Z,102940.00
2023-02-09T07:50:24.968Z,102948.28
2023-02-09T07:52:58.620Z,102931.88
2023-02-09T07:55:28.305Z,102947.13
2023-02-09T07:57:58.036Z,102960.75
2023-02-09T08:00:27.958Z,102959.59
2023-02-09T08:02:58.116Z,102958.44
2023-02-09T08:05:33.887Z,102962.38
2023-02-09T08:08:06.287Z,102952.59
2023-02-09T08:10:36.328Z,102963.13
2023-02-09T08:13:06.243Z,102971.16
2023-02-09T08:15:43.968Z,102988.06
2023-02-09T08:18:18.714Z,102980.50
2023-02-09T08:20:49.532Z,102989.97
2023-02-09T08:23:26.102Z,102990.59
2023-02-09T08:25:56.920Z,102980.16
2023-02-09T08:28:41.639Z,102977.72
2023-02-09T08:31:12.960Z,102982.69
2023-02-09T08:33:43.341Z,102987.66
2023-02-09T08:36:14.254Z,102999.16
2023-02-09T08:38:48.189Z,102992.59
2023-02-09T08:41:19.679Z,102989.72
2023-02-09T08:43:53.121Z,102988.53
2023-02-09T08:46:22.876Z,102984.81
2023-02-09T08:48:52.611Z,102981.75
2023-02-09T08:51:22.381Z,102994.75
2023-02-09T08:53:54.854Z,102998.03
2023-02-09T08:56:25.632Z,102995.16
2023-02-09T08:58:55.385Z,102998.09
2023-02-09T09:01:25.103Z,102994.81
2023-02-09T09:03:55.111Z,102998.16
2023-02-09T09:06:25.078Z,102998.22
2023-02-09T09:08:57.660Z,103001.09
2023-02-09T09:11:28.247Z,103002.56
2023-02-09T09:13:58.375Z,103008.94
2023-02-09T09:16:28.178Z,103002.38
2023-02-09T09:18:57.981Z,103015.34
2023-02-09T09:21:28.434Z,103015.78
2023-02-09T09:24:00.754Z,103008.19
2023-02-09T09:26:30.583Z,103011.09
2023-02-09T09:29:00.548Z,103010.69
2023-02-09T09:31:30.836Z,103014.22
2023-02-09T09:34:00.593Z,103009.50
2023-02-09T09:36:30.534Z,103001.69
2023-02-09T09:39:03.119Z,103001.31
2023-02-09T09:41:37.581Z,102995.16
2023-02-09T09:44:16.667Z,102994.34
2023-02-09T09:46:49.631Z,102991.06
2023-02-09T09:49:25.741Z,102959.41
2023-02-09T09:51:59.737Z,102971.34
2023-02-09T09:54:36.302Z,102978.34
2023-02-09T09:57:06.349Z,102955.69
2023-02-09T09:59:39.429Z,102960.25
2023-02-09T10:02:21.175Z,102964.56
2023-02-09T10:04:51.288Z,102968.09
2023-02-09T10:07:23.947Z,102973.44
2023-02-09T10:10:02.210Z,102967.69
2023-02-09T10:12:39.243Z,102975.28
2023-02-09T10:15:28.116Z,102967.25
2023-02-09T10:17:58.296Z,102987.06
2023-02-09T10:20:46.924Z,102975.91
2023-02-09T10:23:28.781Z,102994.44
2023-02-09T10:26:05.821Z,102984.53
2023-02-09T10:28:37.604Z,102970.06
2023-02-09T10:31:14.956Z,102969.69
2023-02-09T10:33:47.290Z,102967.22
2023-02-09T10:36:30.272Z,102969.06
2023-02-09T10:39:13.696Z,102968.41
2023-02-09T10:41:49.350Z,102959.31
2023-02-09T10:44:23.409Z,102967.56
2023-02-09T10:46:53.705Z,102982.81
2023-02-09T10:49:36.478Z,102975.97
2023-02-09T10:52:17.007Z,102971.00
2023-02-09T10:54:50.820Z,102968.28
2023-02-09T10:57:31.011Z,102968.66
2023-02-09T11:00:02.558Z,102966.19
2023-02-09T11:02:41.346Z,102969.44
2023-02-09T11:05:29.701Z,102984.47
2023-02-09T11:08:09.914Z,102986.06
2023-02-09T11:10:46.151Z,102979.19
2023-02-09T11:13:27.817Z,102972.13
2023-02-09T11:16:30.524Z,102976.59
2023-02-09T11:19:05.877Z,102972.00
2023-02-09T11:21:49.675Z,102979.06
2023-02-09T11:24:27.125Z,102969.09
2023-02-09T11:27:03.557Z,102960.13
2023-02-09T11:29:44.038Z,102963.44
2023-02-09T11:32:22.485Z,102965.25
2023-02-09T11:35:13.975Z,102968.09
2023-02-09T11:37:53.110Z,102965.56
2023-02-09T11:40:27.609Z,102967.16
2023-02-09T11:43:13.132Z,102965.88
2023-02-09T11:45:48.982Z,102954.63
2023-02-09T11:48:26.194Z,102962.47
2023-02-09T11:51:04.527Z,102971.16
2023-02-09T11:53:43.936Z,102952.09
2023-02-09T11:56:16.760Z,102933.41
2023-02-09T11:58:51.596Z,102924.69
2023-02-09T12:01:36.139Z,102920.50
2023-02-09T12:04:18.741Z,102919.00
2023-02-09T12:06:52.901Z,102934.69
2023-02-09T12:09:38.676Z,102932.81
2023-02-09T12:12:18.638Z,102925.72
2023-02-09T12:14:58.444Z,102923.66
2023-02-09T12:17:42.717Z,102928.59
2023-02-09T12:20:26.900Z,102931.03
2023-02-09T12:23:04.579Z,102938.06
2023-02-09T12:25:50.213Z,102945.78
2023-02-09T12:28:48.449Z,102946.44
2023-02-09T12:31:24.420Z,102949.66
2023-02-09T12:34:16.186Z,102947.59
2023-02-09T12:37:30.417Z,102946.31
2023-02-09T12:40:20.248Z,102943.75
2023-02-09T12:43:23.758Z,102954.47
2023-02-09T12:46:20.512Z,102940.22
2023-02-09T12:49:02.251Z,102945.53
2023-02-09T12:52:12.735Z,102939.78
2023-02-09T12:54:51.986Z,102928.94
2023-02-09T12:57:54.941Z,102927.06
2023-02-09T13:00:44.071Z,102931.00
2023-02-09T13:03:24.682Z,102929.28
2023-02-09T13:05:59.820Z,102925.31
2023-02-09T13:08:53.417Z,102930.91
2023-02-09T13:11:29.415Z,102914.66
2023-02-09T13:14:03.294Z,102920.44
2023-02-09T13:16:53.512Z,102912.34
2023-02-09T13:19:53.398Z,102911.75
2023-02-09T13:22:32.987Z,102906.66
2023-02-09T13:25:16.593Z,102906.19
2023-02-09T13:27:48.366Z,102902.81
2023-02-09T13:30:28.536Z,102902.44
2023-02-09T13:33:08.632Z,102911.97
2023-02-09T13:35:46.873Z,102910.34
2023-02-09T13:38:21.615Z,102917.72
2023-02-09T13:40:55.510Z,102910.81
2023-02-09T13:43:32.242Z,102914.34
2023-02-09T13:46:03.371Z,102921.13
2023-02-09T13:48:35.685Z,102929.34
2023-02-09T13:51:17.230Z,102928.88
2023-02-09T13:53:59.148Z,102919.16
2023-02-09T13:56:33.883Z,102912.84
2023-02-09T13:59:04.314Z,102912.25
2023-02-09T14:01:36.572Z,102912.38
2023-02-09T14:04:12.930Z,102902.78
2023-02-09T14:06:47.299Z,102903.97
2023-02-09T14:09:21.221Z,102918.03
2023-02-09T14:11:56.434Z,102909.69
2023-02-09T14:14:29.580Z,102909.69
2023-02-09T14:17:24.857Z,102915.56
2023-02-09T14:19:56.670Z,102919.66
2023-02-09T14:22:33.630Z,102916.72
2023-02-09T14:25:03.805Z,102911.47
2023-02-09T14:27:41.985Z,102912.28
2023-02-09T14:30:18.409Z,102915.81
2023-02-09T14:32:48.512Z,102919.09
2023-02-09T14:35:22.169Z,102919.47
2023-02-09T14:37:53.990Z,102921.09
2023-02-09T14:40:34.330Z,102905.41
2023-02-09T14:43:25.103Z,102921.56
2023-02-09T14:46:01.995Z,102920.03
2023-02-09T14:48:33.278Z,102923.91
2023-02-09T14:51:05.239Z,102930.47
2023-02-09T14:53:36.040Z,102921.31
2023-02-09T14:56:05.746Z,102924.25
2023-02-09T14:58:38.092Z,102913.22
2023-02-09T15:01:09.172Z,102923.00
2023-02-09T15:03:38.922Z,102912.22
2023-02-09T15:06:09.184Z,102915.94
2023-02-09T15:08:40.376Z,102917.00
2023-02-09T15:11:25.956Z,102916.41
2023-02-09T15:14:01.662Z,102923.91
2023-02-09T15:16:31.373Z,102924.25
2023-02-09T15:19:04.089Z,102928.38
2023-02-09T15:21:33.817Z,102920.75
2023-02-09T15:24:03.581Z,102921.81
2023-02-09T15:26:38.424Z,102926.38
2023-02-09T15:29:14.112Z,102918.97
2023-02-09T15:31:44.217Z,102923.78
2023-02-09T15:34:15.567Z,102922.97
2023-02-09T15:36:45.370Z,102935.63
2023-02-09T15:39:21.479Z,102929.66
2023-02-09T15:42:03.592Z,102936.09
2023-02-09T15:44:48.584Z,102942.31
2023-02-09T15:47:30.673Z,102936.09
2023-02-09T15:50:00.444Z,102936.56
2023-02-09T15:52:33.034Z,102947.34
2023-02-09T15:55:02.988Z,102955.69
2023-02-09T15:57:32.972Z,102950.97
2023-02-09T16:00:11.799Z,102955.78
2023-02-09T16:02:41.671Z,102963.72
2023-02-09T16:05:11.565Z,102973.34
2023-02-09T16:07:41.299Z,102985.38
2023-02-09T16:10:16.239Z,102983.41
2023-02-09T16:12:45.963Z,102988.78
2023-02-09T16:15:22.927Z,102989.69
2023-02-09T16:17:52.762Z,102998.38
2023-02-09T16:20:25.807Z,103009.63
2023-02-09T16:22:57.511Z,103007.38
2023-02-09T16:25:28.884Z,103015.94
2023-02-09T16:28:01.078Z,103014.28
2023-02-09T16:30:37.888Z,103012.84
2023-02-09T16:33:07.746Z,103009.78
2023-02-09T16:35:37.434Z,103016.25
2023-02-09T16:38:19.007Z,103022.28
2023-02-09T16:40:52.054Z,103026.84
2023-02-09T16:43:22.630Z,103032.22
2023-02-09T16:46:03.386Z,103021.88
2023-02-09T16:48:35.730Z,103031.03
2023-02-09T16:51:05.827Z,103028.56
2023-02-09T16:53:40.811Z,103029.84
2023-02-09T16:56:12.478Z,103036.28
2023-02-09T16:58:42.365Z,103035.66
2023-02-09T17:01:21.149Z,103041.50
2023-02-09T17:03:53.592Z,103033.66
2023-02-09T17:06:25.472Z,103025.78
2023-02-09T17:08:56.792Z,103030.00
2023-02-09T17:11:27.900Z,103033.75
2023-02-09T17:13:57.588Z,103031.03
2023-02-09T17:16:34.041Z,103038.75
2023-02-09T17:19:05.479Z,103048.69
2023-02-09T17:21:38.966Z,103047.03
2023-02-09T17:24:14.254Z,103044.34
2023-02-09T17:26:44.115Z,103042.72
2023-02-09T17:29:14.629Z,103047.28
2023-02-09T17:31:53.168Z,103043.75
2023-02-09T17:34:27.296Z,103051.22
2023-02-09T17:36:57.323Z,103054.16
2023-02-09T17:39:29.902Z,103054.97
2023-02-09T17:42:01.014Z,103053.31
2023-02-09T17:44:45.617Z,103057.06
2023-02-09T17:47:20.888Z,103058.13
2023-02-09T17:49:50.617Z,103067.03
2023-02-09T17:52:21.616Z,103070.53
2023-02-09T17:54:51.547Z,103073.22
2023-02-09T17:57:21.267Z,103087.28
2023-02-09T17:59:51.017Z,103081.91
2023-02-09T18:02:23.390Z,103091.63
2023-02-09T18:04:53.089Z,103091.63
2023-02-09T18:07:22.828Z,103096.81
2023-02-09T18:09:54.433Z,103092.66
2023-02-09T18:12:29.174Z,103098.88
2023-02-09T18:14:59.293Z,103099.09
2023-02-09T18:17:31.668Z,103098.50
2023-02-09T18:20:01.421Z,103103.91
2023-02-09T18:22:31.314Z,103102.25
2023-02-09T18:25:01.580Z,103106.00
2023-02-09T18:27:31.377Z,103106.00
2023-02-09T18:30:01.128Z,103111.97
2023-02-09T18:32:33.466Z,103111.97
2023-02-09T18:35:03.169Z,103113.63
2023-02-09T18:37:32.873Z,103114.22
2023-02-09T18:40:02.625Z,103113.38
2023-02-09T18:42:32.419Z,103112.34
2023-02-09T18:45:02.556Z,103118.78
2023-02-09T18:47:36.498Z,103123.56
2023-02-09T18:50:06.831Z,103120.06
2023-02-09T18:52:36.739Z,103129.19
2023-02-09T18:55:06.654Z,103128.72
2023-02-09T18:57:36.397Z,103128.72
2023-02-09T19:00:07.890Z,103126.63
2023-02-09T19:02:40.233Z,103118.78
2023-02-09T19:05:10.371Z,103129.31
2023-02-09T19:07:40.133Z,103132.03
2023-02-09T19:10:11.135Z,103130.78
2023-02-09T19:12:41.637Z,103140.72
2023-02-09T19:15:11.854Z,103134.50
2023-02-09T19:17:44.614Z,103142.19
2023-02-09T19:20:17.994Z,103143.84
2023-02-09T19:22:48.165Z,103146.53
2023-02-09T19:25:18.107Z,103144.06
2023-02-09T19:27:47.697Z,103147.81
2023-02-09T19:30:21.510Z,103153.66
2023-02-09T19:32:54.037Z,103157.16
2023-02-09T19:35:24.720Z,103167.72
2023-02-09T19:37:55.064Z,103168.53
2023-02-09T19:40:28.630Z,103166.88
2023-02-09T19:42:58.916Z,103166.44
2023-02-09T19:45:31.105Z,103171.59
2023-02-09T19:48:03.491Z,103178.44
2023-02-09T19:50:33.217Z,103176.31
2023-02-09T19:53:03.011Z,103175.06
2023-02-09T19:55:32.822Z,103182.94
2023-02-09T19:58:02.519Z,103185.63
2023-02-09T20:00:32.278Z,103177.56
2023-02-09T20:03:04.743Z,103183.75
2023-02-09T20:05:34.543Z,103178.38
2023-02-09T20:08:05.241Z,103176.72
2023-02-09T20:10:34.972Z,103186.66
2023-02-09T20:13:05.673Z,103188.75
2023-02-09T20:15:36.275Z,103196.59
2023-02-09T20:18:08.730Z,103192.03
2023-02-09T20:20:38.524Z,103181.88
2023-02-09T20:23:08.313Z,103184.56
2023-02-09T20:25:38.199Z,103194.91
2023-02-09T20:28:08.381Z,103198.19
2023-02-09T20:30:38.375Z,103188.25
2023-02-09T20:33:11.666Z,103191.16
2023-02-09T20:35:43.193Z,103195.72
2023-02-09T20:38:13.730Z,103193.84
2023-02-09T20:40:45.491Z,103191.16
2023-02-09T20:43:28.313Z,103200.28
2023-02-09T20:46:10.467Z,103200.28
2023-02-09T20:48:43.018Z,103208.13
2023-02-09T20:51:12.880Z,103201.94
2023-02-09T20:53:42.847Z,103194.66
2023-02-09T20:56:12.620Z,103201.72
2023-02-09T20:58:42.486Z,103201.50
2023-02-09T21:01:12.286Z,103197.75
2023-02-09T21:03:44.840Z,103196.72
2023-02-09T21:06:16.265Z,103200.22
2023-02-09T21:08:46.419Z,103195.66
2023-02-09T21:11:17.328Z,103190.28
2023-02-09T21:13:47.355Z,103196.47
2023-02-09T21:16:20.377Z,103201.06
2023-02-09T21:18:53.343Z,103203.16
2023-02-09T21:21:23.750Z,103196.72
2023-02-09T21:23:53.433Z,103202.69
2023-02-09T21:26:25.123Z,103202.69
2023-02-09T21:28:58.200Z,103202.69
2023-02-09T21:31:30.446Z,103197.31
2023-02-09T21:34:02.824Z,103196.47
2023-02-09T21:36:32.694Z,103199.81
2023-02-09T21:39:02.478Z,103202.28
2023-02-09T21:41:44.589Z,103194.78
2023-02-09T21:44:15.192Z,103198.06
2023-02-09T21:46:45.091Z,103194.56
2023-02-09T21:49:17.799Z,103197.25
2023-02-09T21:51:48.044Z,103195.00
2023-02-09T21:54:18.853Z,103186.34
2023-02-09T21:56:48.832Z,103197.94
2023-02-09T21:59:18.652Z,103189.84
2023-02-09T22:01:48.357Z,103187.16
2023-02-09T22:04:20.893Z,103188.16
2023-02-09T22:06:50.685Z,103188.16
2023-02-09T22:09:20.506Z,103191.72
2023-02-09T22:11:50.264Z,103190.66
2023-02-09T22:14:21.071Z,103188.56
2023-02-09T22:16:50.858Z,103201.81
2023-02-09T22:19:23.314Z,103198.06
2023-02-09T22:21:53.597Z,103198.88
2023-02-09T22:24:23.325Z,103197.47
2023-02-09T22:26:53.432Z,103198.06
2023-02-09T22:29:23.250Z,103196.88
2023-02-09T22:31:53.058Z,103191.50
2023-02-09T22:34:25.375Z,103190.66
2023-02-09T22:36:55.927Z,103193.97
2023-02-09T22:39:25.788Z,103210.34
2023-02-09T22:41:58.166Z,103203.31
2023-02-09T22:44:28.000Z,103203.31
2023-02-09T22:46:57.662Z,103201.22
2023-02-09T22:49:30.030Z,103207.19
2023-02-09T22:51:59.731Z,103207.44
2023-02-09T22:54:31.077Z,103219.63
2023-02-09T22:57:00.792Z,103209.91
2023-02-09T22:59:30.538Z,103223.38
2023-02-09T23:02:00.307Z,103218.44
2023-02-09T23:04:33.305Z,103216.78
2023-02-09T23:07:04.132Z,103229.63
2023-02-09T23:09:34.543Z,103218.84
2023-02-09T23:12:04.449Z,103219.91
2023-02-09T23:14:34.168Z,103228.44
2023-02-09T23:17:03.884Z,103226.81
2023-02-09T23:19:36.266Z,103230.50
2023-02-09T23:22:06.046Z,103233.22
2023-02-09T23:24:35.754Z,103233.00
2023-02-09T23:27:05.470Z,103235.06
2023-02-09T23:29:35.173Z,103236.53
2023-02-09T23:32:05.012Z,103241.28
2023-02-09T23:34:37.474Z,103238.00
2023-02-09T23:37:18.106Z,103240.09
2023-02-09T23:39:53.346Z,103243.00
2023-02-09T23:42:23.041Z,103249.22
2023-02-09T23:44:52.712Z,103250.28
2023-02-09T23:47:22.454Z,103258.34
2023-02-09T23:49:54.743Z,103261.03
2023-02-09T23:52:24.468Z,103265.81
2023-02-09T23:54:54.144Z,103270.16
2023-02-09T23:57:23.976Z,103262.50
2023-02-09T23:59:56.383Z,103267.69
